Terminal Aerodrome Forecast
Issued by NWS Memphis, TN

Home | Current Version | Previous Version | Text Only | Print | Product List | Glossary On
Versions: 1 2 3 4 5 6 7 8 9 10 11 12 13 14 15 16 17 18 19 20 21 22
000
FTUS44 KMEG 281129
TAFJBR
TAF
KJBR 281129Z 2812/2912 VRB03KT P6SM BKN007 OVC020
      TEMPO 2812/2814 2SM BR OVC007
     FM281700 14005KT P6SM BKN035
     FM290000 13004KT P6SM BKN250=

USA.gov is the U.S. government's official web portal to all federal, state and local government web resources and services.